Northville, MI

6:47 PM EDT on March 27, 2015 (GMT -0400)
Charrington Green | | Change Station
CLOSE
Current Station
Personal Weather Station
Location: Novi, MI
Elevation: 909 ft
Nearby Weather Stations

Elev 909 ft 42.45 °N, 83.45 °W | Updated 15 seconds ago

Overcast
Overcast
24.6 °F
Feels Like 20 °F
N
4.0
Wind Variable Wind from North
Gusts 4.0 mph

Today
High -- | Low -- °F
--% Chance of Precip.
Yesterday
High -- | Low -- °F
Precip. -- in
7:25 AM 7:54 PM
First Quarter, 56% visible
Pressure 30.05 in
Visibility 9.0 miles
Clouds Few 3900 ft
Few 4700 ft
Overcast 6000 ft
Windchill 20 °F
Dew Point 15 °F
Humidity 66%
Rainfall 0.00 in
Snow Depth Not available.
UV 0 out of 12
Pollen 3.20 out of 12
Air Quality Not available.
Flu Activity Not available.
SPECI KYIP 272213Z 35013KT 9SM FEW039 FEW047 OVC060 M02/M11 A3005 RMK AO2 WSHFT 2153 SNB00E13 P0000 T10221111

More Conditions Fewer Conditions

Pressure 30.05 in
Visibility 9.0 miles
Clouds Few 3900 ft
Few 4700 ft
Overcast 6000 ft
Windchill 20 °F
Dew Point 15 °F
Humidity 66%
Rainfall 0.00 in
Snow Depth Not available.
UV 0 out of 12
Pollen 3.20 out of 12
Air Quality Not available.
Flu Activity Not available.
SPECI KYIP 272213Z 35013KT 9SM FEW039 FEW047 OVC060 M02/M11 A3005 RMK AO2 WSHFT 2153 SNB00E13 P0000 T10221111

More Conditions Fewer Conditions

10-Day Weather Forecast

Almanac

Astronomy

Mar. 27, 2015 Rise Set
Actual Time
Civil Twilight
Nautical Twilight
Astronomical Twilight
Moon
Length of Visible Light
Length of Day
Tomorrow will be .
, % of the Moon is Illuminated

Today's Extremes

State Highs State Lows

Community

WunderPhotos

Upload Photos

1,808,856 photos uploaded!

WunderBlogs® & News

Nearby

Air Quality

  Air Quality AQ Index Pollutant
Not available.

Snow Depth

Station Depth Elevation

Earthquake Activity

City Distance Mag. Time & Date
Minimum magnitude displayed is 2.5.

Coastal Water Temperatures

Place Temperature

Stations

Nearby Weather Stations

Station Location Temp. Windchill Dew Point Humidity Wind Precip. Elev Updated Type